Time;durP1;ratioP1;P1;durP2;ratioP2;P2;SDS_P1;SDS_P2;PMS_P1;PMS_P2;Temp;Humidity;BMP_temperature;BMP_pressure;BME280_temperature;BME280_humidity;BME280_pressure;Samples;Min_cycle;Max_cycle;Signal;HPM_P1;HPM_P2
2023/12/19 00:00:51;;;;;;;11.60;11.20;;;0.20;99.90;;;;;;5127163;27;20232;-84
2023/12/19 00:03:20;;;;;;;11.80;11.40;;;0.20;99.90;;;;;;5127254;28;20246;-84
2023/12/19 00:05:49;;;;;;;11.80;11.40;;;0.30;99.90;;;;;;5127307;28;20229;-84
2023/12/19 00:08:16;;;;;;;11.63;11.23;;;0.30;99.90;;;;;;5128918;28;20237;-83
2023/12/19 00:10:43;;;;;;;11.43;11.03;;;0.30;99.90;;;;;;5128173;27;20232;-84
2023/12/19 00:13:11;;;;;;;11.97;11.57;;;0.30;99.90;;;;;;5128909;27;20280;-83
2023/12/19 00:15:39;;;;;;;11.37;10.97;;;0.30;99.90;;;;;;5128176;28;20209;-84
2023/12/19 00:18:06;;;;;;;11.57;11.17;;;0.30;99.90;;;;;;5127120;28;20228;-84
2023/12/19 00:20:33;;;;;;;11.60;11.20;;;0.30;99.90;;;;;;5126711;28;20224;-84
2023/12/19 00:23:04;;;;;;;11.20;10.80;;;0.30;99.90;;;;;;5127652;27;20244;-82
2023/12/19 00:25:31;;;;;;;11.33;10.93;;;0.30;99.90;;;;;;5125804;28;20220;-82
2023/12/19 00:27:59;;;;;;;11.23;10.83;;;0.30;99.90;;;;;;5127003;28;20237;-83
2023/12/19 00:30:27;;;;;;;11.47;11.07;;;0.30;99.90;;;;;;5126594;27;21076;-83
2023/12/19 00:32:54;;;;;;;11.23;10.83;;;0.30;99.90;;;;;;5125865;28;20235;-83
2023/12/19 00:35:21;;;;;;;11.33;10.93;;;0.30;99.90;;;;;;5126027;27;20229;-83
2023/12/19 00:37:49;;;;;;;11.20;10.80;;;0.30;99.90;;;;;;5126096;27;20240;-84
2023/12/19 00:40:18;;;;;;;10.80;10.50;;;0.30;99.90;;;;;;5126908;28;20229;-83
2023/12/19 00:42:45;;;;;;;11.27;10.87;;;0.20;99.90;;;;;;5127991;28;20255;-83
2023/12/19 00:45:12;;;;;;;11.10;10.70;;;0.20;99.90;;;;;;5129025;27;20282;-82
2023/12/19 00:47:40;;;;;;;11.00;10.60;;;0.30;99.90;;;;;;5143174;27;20235;-84
2023/12/19 00:50:09;;;;;;;10.83;10.50;;;0.30;99.90;;;;;;5148698;27;20228;-84
2023/12/19 00:52:49;;;;;;;10.90;10.50;;;0.20;99.90;;;;;;5149086;27;20224;-83
2023/12/19 00:55:18;;;;;;;11.30;10.90;;;0.20;99.90;;;;;;5149749;27;20277;-81
2023/12/19 00:57:46;;;;;;;11.23;10.83;;;0.20;99.90;;;;;;5148918;27;20258;-81
2023/12/19 01:00:16;;;;;;;10.97;10.57;;;0.20;99.90;;;;;;5149216;27;20231;-83
2023/12/19 01:02:43;;;;;;;11.07;10.67;;;0.30;99.90;;;;;;5149194;27;20228;-82
2023/12/19 01:05:11;;;;;;;11.13;10.73;;;0.30;99.90;;;;;;5148858;27;20796;-82
2023/12/19 01:07:38;;;;;;;11.33;10.93;;;0.30;99.90;;;;;;5149292;27;20239;-83
2023/12/19 01:10:06;;;;;;;11.20;10.80;;;0.30;99.90;;;;;;5149553;27;20227;-83
2023/12/19 01:12:35;;;;;;;11.23;10.83;;;0.30;99.90;;;;;;5150331;27;20291;-83
2023/12/19 01:15:03;;;;;;;11.10;10.70;;;0.30;99.90;;;;;;5150440;27;20259;-82
2023/12/19 01:17:30;;;;;;;11.00;10.63;;;0.40;99.90;;;;;;5149341;27;20235;-83
2023/12/19 01:19:57;;;;;;;10.67;10.37;;;0.40;99.90;;;;;;5158337;27;20288;-82
2023/12/19 01:22:25;;;;;;;11.10;10.70;;;0.40;99.90;;;;;;5160112;27;20220;-81
2023/12/19 01:24:52;;;;;;;11.20;10.80;;;0.50;99.90;;;;;;5159670;27;20281;-82
2023/12/19 01:27:20;;;;;;;11.43;11.03;;;0.50;99.90;;;;;;5155820;27;20228;-83
2023/12/19 01:29:49;;;;;;;11.50;11.10;;;0.50;99.90;;;;;;5154864;27;20239;-83
2023/12/19 01:32:17;;;;;;;11.43;11.03;;;0.40;99.90;;;;;;5149221;27;20228;-82
2023/12/19 01:34:44;;;;;;;11.57;11.17;;;0.40;99.90;;;;;;5148523;27;20282;-83
2023/12/19 01:37:11;;;;;;;11.47;11.07;;;0.40;99.90;;;;;;5147489;27;20228;-82
2023/12/19 01:39:39;;;;;;;11.70;11.30;;;0.40;99.90;;;;;;5147787;27;20220;-83
2023/12/19 01:42:06;;;;;;;11.70;11.30;;;0.40;99.90;;;;;;5147148;27;20228;-82
2023/12/19 01:44:34;;;;;;;11.47;11.07;;;0.40;99.90;;;;;;5148256;27;20228;-83
2023/12/19 01:47:02;;;;;;;11.47;11.07;;;0.40;99.90;;;;;;5146339;27;20252;-81
2023/12/19 01:49:30;;;;;;;11.50;11.10;;;0.40;99.90;;;;;;5140918;27;20228;-84
2023/12/19 01:51:57;;;;;;;11.17;10.77;;;0.40;99.90;;;;;;5138534;27;20226;-83
2023/12/19 01:54:25;;;;;;;10.80;10.50;;;0.40;99.90;;;;;;5144595;27;20231;-83
2023/12/19 01:56:52;;;;;;;11.30;10.90;;;0.40;99.90;;;;;;5141722;27;20243;-83
2023/12/19 01:59:20;;;;;;;11.53;11.13;;;0.40;99.90;;;;;;5157166;27;20240;-83
2023/12/19 02:01:48;;;;;;;11.17;10.77;;;0.40;99.90;;;;;;5159054;27;20232;-82
2023/12/19 02:04:17;;;;;;;11.00;10.70;;;0.50;99.90;;;;;;5153368;27;20208;-81
2023/12/19 02:06:44;;;;;;;10.60;10.30;;;0.50;99.90;;;;;;5142014;27;20232;-81
2023/12/19 02:09:12;;;;;;;10.40;10.10;;;0.50;99.90;;;;;;5140483;27;20229;-82
2023/12/19 02:11:39;;;;;;;10.47;10.17;;;0.60;99.90;;;;;;5127424;28;20228;-84
2023/12/19 02:14:06;;;;;;;10.27;9.97;;;0.60;99.90;;;;;;5126218;28;20208;-83
2023/12/19 02:16:34;;;;;;;10.40;10.10;;;0.60;99.90;;;;;;5125593;28;20233;-82
2023/12/19 02:19:02;;;;;;;10.70;10.40;;;0.60;99.90;;;;;;5125446;28;20232;-83
2023/12/19 02:21:31;;;;;;;10.60;10.30;;;0.70;99.90;;;;;;5127000;28;20221;-82
2023/12/19 02:23:59;;;;;;;10.77;10.47;;;0.60;99.90;;;;;;5131567;28;20216;-83
2023/12/19 02:26:28;;;;;;;10.43;10.13;;;0.70;99.90;;;;;;5137075;27;20251;-82
2023/12/19 02:28:55;;;;;;;10.37;10.07;;;0.70;99.90;;;;;;5137141;27;20237;-83
2023/12/19 02:31:22;;;;;;;10.53;10.23;;;0.70;99.90;;;;;;5126314;28;20225;-83
2023/12/19 02:33:50;;;;;;;10.50;10.20;;;0.70;99.90;;;;;;5129526;28;20221;-83
2023/12/19 02:36:17;;;;;;;10.80;10.50;;;0.70;99.90;;;;;;5125829;28;20232;-83
2023/12/19 02:38:44;;;;;;;10.60;10.30;;;0.70;99.90;;;;;;5125733;28;20232;-83
2023/12/19 02:41:13;;;;;;;10.60;10.30;;;0.80;99.90;;;;;;5130827;28;20225;-82
2023/12/19 02:43:40;;;;;;;11.40;11.00;;;0.70;99.90;;;;;;5129100;28;20233;-83
2023/12/19 02:46:07;;;;;;;11.10;10.70;;;0.80;99.90;;;;;;5141799;27;20228;-81
2023/12/19 02:48:35;;;;;;;11.20;10.80;;;0.80;99.90;;;;;;5141707;27;20235;-81
2023/12/19 02:51:02;;;;;;;11.27;10.87;;;0.80;99.90;;;;;;5141835;27;20259;-81
2023/12/19 02:53:29;;;;;;;10.83;10.53;;;0.80;99.90;;;;;;5131046;28;20317;-83
2023/12/19 02:55:57;;;;;;;11.13;10.73;;;0.80;99.90;;;;;;5126066;28;20232;-83
2023/12/19 02:58:25;;;;;;;10.83;10.53;;;0.70;99.90;;;;;;5125620;28;20225;-83
2023/12/19 03:00:52;;;;;;;11.23;10.83;;;0.70;99.90;;;;;;5127040;28;20233;-82
2023/12/19 03:03:20;;;;;;;11.30;10.90;;;0.70;99.90;;;;;;5127027;28;20225;-82
2023/12/19 03:05:47;;;;;;;10.93;10.53;;;0.60;99.90;;;;;;5127664;28;20237;-82
2023/12/19 03:08:14;;;;;;;11.20;10.80;;;0.60;99.90;;;;;;5128114;28;20232;-83
2023/12/19 03:10:42;;;;;;;11.33;10.93;;;0.60;99.90;;;;;;5127488;28;20231;-83
2023/12/19 03:13:09;;;;;;;11.40;11.00;;;0.60;99.90;;;;;;5126591;28;20229;-83
2023/12/19 03:15:38;;;;;;;11.63;11.23;;;0.60;99.90;;;;;;5126784;28;20232;-83
2023/12/19 03:18:05;;;;;;;11.70;11.30;;;0.60;99.90;;;;;;5125607;28;20263;-83
2023/12/19 03:20:33;;;;;;;11.37;10.97;;;0.60;99.90;;;;;;5125419;28;20232;-82
2023/12/19 03:23:00;;;;;;;11.40;11.00;;;0.60;99.90;;;;;;5126203;28;20225;-83
2023/12/19 03:25:27;;;;;;;11.30;10.90;;;0.60;99.90;;;;;;5126545;28;20233;-82
2023/12/19 03:27:54;;;;;;;11.30;10.90;;;0.50;99.90;;;;;;5136564;27;20236;-83
2023/12/19 03:30:22;;;;;;;11.27;10.87;;;0.60;99.90;;;;;;5139476;27;20227;-83
2023/12/19 03:32:50;;;;;;;11.40;11.00;;;0.60;99.90;;;;;;5140135;27;20232;-83
2023/12/19 03:35:18;;;;;;;11.67;11.27;;;0.60;99.90;;;;;;5136213;27;20245;-83
2023/12/19 03:37:45;;;;;;;11.53;11.13;;;0.60;99.90;;;;;;5138915;27;20236;-82
2023/12/19 03:40:12;;;;;;;11.30;10.90;;;0.60;99.90;;;;;;5146627;27;20232;-83
2023/12/19 03:42:39;;;;;;;11.57;11.17;;;0.60;99.90;;;;;;5145778;27;20223;-83
2023/12/19 03:45:08;;;;;;;11.33;10.93;;;0.60;99.90;;;;;;5147044;27;20232;-82
2023/12/19 03:47:35;;;;;;;11.40;11.00;;;0.70;99.90;;;;;;5145954;27;20236;-83
2023/12/19 03:50:05;;;;;;;11.50;11.10;;;0.70;99.90;;;;;;5147796;27;20225;-81
2023/12/19 03:52:33;;;;;;;11.53;11.13;;;0.80;99.90;;;;;;5147103;27;21050;-83
2023/12/19 03:55:00;;;;;;;11.87;11.47;;;0.80;99.90;;;;;;5145757;27;20312;-83
2023/12/19 03:57:28;;;;;;;11.60;11.20;;;0.80;99.90;;;;;;5142943;27;20228;-82
2023/12/19 03:59:55;;;;;;;11.43;11.03;;;0.80;99.90;;;;;;5142157;27;20293;-82
2023/12/19 04:02:22;;;;;;;11.90;11.50;;;0.80;99.90;;;;;;5134546;27;20281;-82
2023/12/19 04:04:50;;;;;;;11.77;11.37;;;0.80;99.90;;;;;;5139361;27;20265;-83
2023/12/19 04:07:19;;;;;;;11.73;11.33;;;0.80;99.90;;;;;;5145495;27;20241;-82
2023/12/19 04:09:46;;;;;;;11.37;10.97;;;0.90;99.90;;;;;;5145921;27;20216;-83
2023/12/19 04:12:14;;;;;;;11.30;10.90;;;0.80;99.90;;;;;;5145443;27;20399;-82
2023/12/19 04:14:41;;;;;;;11.60;11.20;;;0.80;99.90;;;;;;5146338;27;20231;-82
2023/12/19 04:17:08;;;;;;;11.20;10.80;;;0.80;99.90;;;;;;5135607;27;21061;-82
2023/12/19 04:19:35;;;;;;;11.53;11.13;;;0.80;99.90;;;;;;5144701;27;20227;-81
2023/12/19 04:22:03;;;;;;;11.20;10.80;;;0.80;99.90;;;;;;5145198;27;20224;-83
2023/12/19 04:24:32;;;;;;;11.73;11.33;;;0.80;99.90;;;;;;5147429;27;20302;-82
2023/12/19 04:26:59;;;;;;;11.57;11.17;;;0.70;99.90;;;;;;5148511;27;20327;-82
2023/12/19 04:29:26;;;;;;;11.47;11.07;;;0.60;99.90;;;;;;5149561;27;20323;-82
2023/12/19 04:31:53;;;;;;;10.77;10.47;;;0.60;99.90;;;;;;5150128;27;20273;-82
2023/12/19 04:34:21;;;;;;;11.40;11.00;;;0.50;99.90;;;;;;5148662;27;20284;-82
2023/12/19 04:36:48;;;;;;;11.03;10.73;;;0.50;99.90;;;;;;5148031;27;20238;-83
2023/12/19 04:39:15;;;;;;;11.27;10.87;;;0.40;99.90;;;;;;5148310;27;20250;-83
2023/12/19 04:41:44;;;;;;;11.30;10.90;;;0.40;99.90;;;;;;5147383;27;20213;-82
2023/12/19 04:44:11;;;;;;;11.50;11.10;;;0.40;99.90;;;;;;5148845;27;20236;-83
2023/12/19 04:46:38;;;;;;;11.27;10.87;;;0.40;99.90;;;;;;5149044;27;20264;-83
2023/12/19 04:49:06;;;;;;;11.70;11.30;;;0.40;99.90;;;;;;5149965;27;20228;-83
2023/12/19 04:51:33;;;;;;;11.63;11.23;;;0.40;99.90;;;;;;5149338;27;20212;-83
2023/12/19 04:54:03;;;;;;;12.00;11.60;;;0.30;99.90;;;;;;5148856;27;20228;-82
2023/12/19 04:56:30;;;;;;;11.73;11.33;;;0.20;99.90;;;;;;5148750;27;20232;-82
2023/12/19 04:58:58;;;;;;;11.67;11.27;;;0.20;99.90;;;;;;5147591;27;20219;-83
2023/12/19 05:01:26;;;;;;;11.60;11.20;;;0.20;99.90;;;;;;5148587;27;20235;-83
2023/12/19 05:03:53;;;;;;;11.80;11.40;;;0.10;99.90;;;;;;5149017;27;20274;-83
2023/12/19 05:06:20;;;;;;;11.93;11.53;;;0.10;99.90;;;;;;5149642;27;20282;-82
2023/12/19 05:08:49;;;;;;;11.63;11.23;;;0.10;99.90;;;;;;5149385;27;20232;-83
2023/12/19 05:11:16;;;;;;;11.77;11.37;;;0.20;99.90;;;;;;5149441;27;20228;-82
2023/12/19 05:13:43;;;;;;;11.73;11.33;;;0.10;99.90;;;;;;5149014;27;20236;-82
2023/12/19 05:16:13;;;;;;;11.90;11.50;;;0.10;99.90;;;;;;5148869;27;20235;-83
2023/12/19 05:18:41;;;;;;;12.10;11.70;;;0.00;99.90;;;;;;5149060;27;20254;-82
2023/12/19 05:21:08;;;;;;;11.93;11.53;;;0.00;99.90;;;;;;5149921;27;20224;-82
2023/12/19 05:23:36;;;;;;;11.60;11.20;;;0.00;99.90;;;;;;5150307;27;20254;-83
2023/12/19 05:26:04;;;;;;;11.90;11.50;;;0.00;99.90;;;;;;5150423;27;20754;-82
2023/12/19 05:28:31;;;;;;;11.70;11.30;;;0.00;99.90;;;;;;5149850;27;20223;-83
2023/12/19 05:30:58;;;;;;;11.63;11.23;;;0.00;99.90;;;;;;5150191;27;20228;-82
2023/12/19 05:33:29;;;;;;;11.57;11.17;;;0.00;99.90;;;;;;5151268;27;20220;-83
2023/12/19 05:35:56;;;;;;;11.70;11.30;;;0.00;99.90;;;;;;5148682;27;20224;-83
2023/12/19 05:38:24;;;;;;;11.30;10.90;;;0.00;99.90;;;;;;5148828;27;20232;-83
2023/12/19 05:40:56;;;;;;;11.40;11.00;;;0.10;99.90;;;;;;5147515;27;20216;-84
2023/12/19 05:43:23;;;;;;;11.57;11.17;;;0.10;99.90;;;;;;5145399;27;20239;-83
2023/12/19 05:45:52;;;;;;;11.57;11.17;;;0.10;99.90;;;;;;5127582;27;20278;-82
2023/12/19 05:51:03;;;;;;;11.20;10.80;;;0.10;99.90;;;;;;5131376;28;20263;-88
2023/12/19 05:53:31;;;;;;;11.17;10.83;;;0.10;99.90;;;;;;5110581;28;20256;-86
2023/12/19 05:55:59;;;;;;;11.27;10.87;;;0.00;99.90;;;;;;5117706;28;20260;-87
2023/12/19 05:58:40;;;;;;;11.37;10.97;;;0.00;99.90;;;;;;5097946;28;20245;-87
2023/12/19 06:01:08;;;;;;;10.73;10.43;;;0.10;99.90;;;;;;5075066;28;20230;-86
2023/12/19 06:03:39;;;;;;;10.80;10.50;;;0.10;99.90;;;;;;5097418;28;20264;-86
2023/12/19 06:06:52;;;;;;;10.70;10.40;;;0.10;99.90;;;;;;5099582;28;20233;-87
2023/12/19 06:09:21;;;;;;;10.87;10.57;;;0.10;99.90;;;;;;5096015;28;20229;-87
2023/12/19 06:12:01;;;;;;;11.43;11.03;;;0.10;99.90;;;;;;5092155;28;20233;-87
2023/12/19 06:14:30;;;;;;;10.90;10.60;;;0.20;99.90;;;;;;5091965;28;20257;-87
2023/12/19 06:17:01;;;;;;;10.83;10.53;;;0.20;99.90;;;;;;5091268;28;20226;-87
2023/12/19 06:19:29;;;;;;;11.10;10.80;;;0.20;99.90;;;;;;5097343;28;20233;-87
2023/12/19 06:22:00;;;;;;;10.87;10.57;;;0.20;99.90;;;;;;5120913;28;20277;-88
2023/12/19 06:24:28;;;;;;;11.20;10.90;;;0.30;99.90;;;;;;5121336;27;20217;-88
2023/12/19 06:26:56;;;;;;;11.10;10.80;;;0.30;99.90;;;;;;5115157;27;20229;-86
2023/12/19 06:29:26;;;;;;;11.13;10.83;;;0.30;99.90;;;;;;5112202;28;20250;-87
2023/12/19 06:34:52;;;;;;;11.20;10.90;;;0.30;99.90;;;;;;5108608;28;20214;-87
2023/12/19 06:37:23;;;;;;;11.00;10.70;;;0.40;99.90;;;;;;5091859;28;20291;-86
2023/12/19 06:42:38;;;;;;;10.63;10.33;;;0.40;99.90;;;;;;5109987;28;20209;-87
2023/12/19 06:45:08;;;;;;;10.70;10.40;;;0.40;99.90;;;;;;5110776;28;20238;-89
2023/12/19 06:47:40;;;;;;;11.00;10.70;;;0.40;99.90;;;;;;5108844;28;20408;-92
2023/12/19 06:50:18;;;;;;;10.90;10.60;;;0.40;99.90;;;;;;5111252;28;20221;-91
2023/12/19 06:57:10;;;;;;;10.67;10.37;;;0.50;99.90;;;;;;5208386;27;20295;-88
2023/12/19 06:59:38;;;;;;;10.90;10.60;;;0.50;99.90;;;;;;5188664;27;20248;-88
2023/12/19 07:07:34;;;;;;;10.80;10.50;;;0.50;99.90;;;;;;5188660;27;20691;-87
2023/12/19 07:10:03;;;;;;;10.47;10.17;;;0.50;99.90;;;;;;5188791;27;20223;-84
2023/12/19 07:12:39;;;;;;;10.83;10.53;;;0.60;99.90;;;;;;5188883;27;20256;-84
2023/12/19 07:15:09;;;;;;;11.10;10.70;;;0.60;99.90;;;;;;5189654;27;20231;-85
2023/12/19 07:17:47;;;;;;;10.57;10.27;;;0.70;99.90;;;;;;5188063;27;20252;-86
2023/12/19 07:20:16;;;;;;;10.70;10.40;;;0.70;99.90;;;;;;5189881;27;20243;-86
2023/12/19 07:22:46;;;;;;;10.93;10.63;;;0.80;99.90;;;;;;5189335;27;20378;-86
2023/12/19 07:25:15;;;;;;;10.70;10.40;;;0.80;99.90;;;;;;5188626;27;20415;-87
2023/12/19 07:30:33;;;;;;;10.77;10.47;;;0.90;99.90;;;;;;5189194;27;20218;-87
2023/12/19 07:33:04;;;;;;;10.80;10.50;;;0.90;99.90;;;;;;5188547;27;20219;-86
2023/12/19 07:35:41;;;;;;;10.90;10.60;;;0.90;99.90;;;;;;5188023;27;20245;-86
2023/12/19 07:38:10;;;;;;;11.00;10.70;;;0.90;99.90;;;;;;5188312;27;20249;-85
2023/12/19 07:40:40;;;;;;;10.87;10.57;;;0.90;99.90;;;;;;5194525;27;20268;-87
2023/12/19 07:43:10;;;;;;;11.10;10.80;;;0.90;99.90;;;;;;5189792;27;20221;-85
2023/12/19 07:48:25;;;;;;;10.80;10.50;;;1.00;99.90;;;;;;5188301;27;20235;-87
2023/12/19 07:50:54;;;;;;;10.87;10.57;;;1.10;99.90;;;;;;5188543;27;20226;-84
2023/12/19 07:53:23;;;;;;;10.70;10.40;;;1.10;99.90;;;;;;5188427;27;20253;-87
2023/12/19 07:56:03;;;;;;;10.77;10.47;;;1.20;99.90;;;;;;5188099;27;20230;-88
2023/12/19 08:01:17;;;;;;;10.97;10.67;;;1.30;99.90;;;;;;5188854;27;20222;-86
2023/12/19 08:03:59;;;;;;;10.90;10.60;;;1.30;99.90;;;;;;5188923;27;20219;-86
2023/12/19 08:06:28;;;;;;;10.67;10.37;;;1.20;99.90;;;;;;5191982;27;20218;-87
2023/12/19 08:08:58;;;;;;;10.80;10.50;;;1.20;99.90;;;;;;5175573;27;20220;-87
2023/12/19 08:11:26;;;;;;;10.70;10.40;;;1.20;99.90;;;;;;5155728;27;20278;-87
2023/12/19 08:16:42;;;;;;;10.50;10.20;;;1.30;99.90;;;;;;5152696;27;20236;-87
2023/12/19 08:19:22;;;;;;;11.00;10.70;;;1.30;99.90;;;;;;5152584;27;20412;-87
2023/12/19 08:21:50;;;;;;;10.57;10.27;;;1.30;99.90;;;;;;5153054;27;20273;-87
2023/12/19 08:24:21;;;;;;;10.50;10.20;;;1.30;99.90;;;;;;5152963;27;20242;-87
2023/12/19 08:26:49;;;;;;;10.87;10.57;;;1.40;99.90;;;;;;5156122;27;20223;-87
2023/12/19 08:32:05;;;;;;;11.00;10.70;;;1.40;99.90;;;;;;5152796;27;20215;-87
2023/12/19 08:34:36;;;;;;;11.07;10.73;;;1.40;99.90;;;;;;5153241;27;20224;-87
2023/12/19 08:37:06;;;;;;;10.93;10.63;;;1.40;99.90;;;;;;5152538;27;20244;-88
2023/12/19 08:39:34;;;;;;;10.80;10.50;;;1.40;99.90;;;;;;5152635;27;20227;-86
2023/12/19 08:42:15;;;;;;;10.90;10.60;;;1.40;99.90;;;;;;5153346;27;20220;-88
2023/12/19 08:44:44;;;;;;;10.80;10.50;;;1.40;99.90;;;;;;5170803;27;20235;-87
2023/12/19 08:47:11;;;;;;;10.70;10.40;;;1.40;99.90;;;;;;5173040;27;20227;-88
2023/12/19 08:49:43;;;;;;;10.23;9.93;;;1.50;99.90;;;;;;5172243;27;20226;-85
2023/12/19 08:52:12;;;;;;;10.50;10.20;;;1.60;99.90;;;;;;5165164;27;20235;-86
2023/12/19 08:54:40;;;;;;;10.60;10.30;;;1.60;99.90;;;;;;5153070;27;20220;-87
2023/12/19 08:57:10;;;;;;;10.37;10.07;;;1.70;99.90;;;;;;5152930;27;20220;-86
2023/12/19 08:59:39;;;;;;;10.40;10.10;;;1.70;99.90;;;;;;5153623;27;20262;-87
2023/12/19 09:02:13;;;;;;;9.97;9.67;;;1.80;99.90;;;;;;5152579;27;20281;-87
2023/12/19 09:07:35;;;;;;;9.90;9.60;;;2.20;99.90;;;;;;5152594;27;20303;-87
2023/12/19 09:10:11;;;;;;;9.70;9.40;;;2.40;99.90;;;;;;5152777;27;20253;-88
2023/12/19 09:12:40;;;;;;;9.63;9.33;;;2.50;99.90;;;;;;5152352;27;20709;-87
2023/12/19 09:15:10;;;;;;;9.67;9.37;;;2.60;99.90;;;;;;5153013;27;20294;-87
2023/12/19 09:17:51;;;;;;;10.07;9.77;;;2.90;99.90;;;;;;5134707;27;20267;-87
2023/12/19 09:23:14;;;;;;;10.40;10.10;;;3.20;99.90;;;;;;5152558;27;20230;-86
2023/12/19 09:25:43;;;;;;;10.50;10.20;;;3.30;99.90;;;;;;5153808;27;20224;-88
2023/12/19 09:28:13;;;;;;;10.40;10.10;;;3.30;99.90;;;;;;5152223;27;20220;-88
2023/12/19 09:30:42;;;;;;;10.47;10.17;;;3.40;99.90;;;;;;5152504;27;20254;-86
2023/12/19 09:36:00;;;;;;;10.60;10.30;;;3.50;99.90;;;;;;5153115;27;20299;-87
2023/12/19 09:38:30;;;;;;;10.40;10.10;;;3.50;99.90;;;;;;5157259;27;20220;-85
2023/12/19 09:40:58;;;;;;;10.40;10.10;;;3.60;99.90;;;;;;5156916;27;20228;-86
2023/12/19 09:43:31;;;;;;;10.60;10.30;;;3.80;99.90;;;;;;5154599;27;20311;-88
2023/12/19 09:46:05;;;;;;;10.67;10.37;;;4.00;99.90;;;;;;5153591;27;20246;-87
2023/12/19 09:51:32;;;;;;;10.40;10.10;;;4.40;99.90;;;;;;5152376;27;20238;-87
2023/12/19 09:54:01;;;;;;;10.50;10.20;;;4.60;99.90;;;;;;5153728;27;20231;-87
2023/12/19 09:56:29;;;;;;;10.63;10.33;;;4.80;99.90;;;;;;5152569;27;20224;-87
2023/12/19 09:59:00;;;;;;;10.80;10.50;;;5.10;99.90;;;;;;5151255;27;20208;-87
2023/12/19 10:01:31;;;;;;;10.53;10.23;;;5.50;99.90;;;;;;5152652;27;20280;-87
2023/12/19 10:04:18;;;;;;;10.80;10.50;;;5.80;99.90;;;;;;5152529;27;20232;-84
2023/12/19 10:06:58;;;;;;;10.53;10.23;;;6.00;99.90;;;;;;5152566;27;20223;-86
2023/12/19 10:09:26;;;;;;;10.87;10.57;;;6.20;99.90;;;;;;5151947;27;20224;-86
2023/12/19 10:12:12;;;;;;;10.10;9.80;;;6.20;99.90;;;;;;5151918;27;20220;-87
2023/12/19 10:14:41;;;;;;;10.50;10.20;;;6.20;99.90;;;;;;5166018;27;20263;-87
2023/12/19 10:17:22;;;;;;;10.50;10.20;;;6.30;99.90;;;;;;5171587;27;20226;-88
2023/12/19 10:19:52;;;;;;;10.27;9.97;;;6.40;99.90;;;;;;5171746;27;20227;-88
2023/12/19 10:25:05;;;;;;;10.77;10.47;;;6.90;99.90;;;;;;5172716;27;20258;-87
2023/12/19 10:27:36;;;;;;;10.60;10.30;;;7.00;99.90;;;;;;5166713;27;20751;-88
2023/12/19 10:30:23;;;;;;;10.70;10.40;;;7.10;99.90;;;;;;5170677;27;20238;-88
2023/12/19 10:35:46;;;;;;;10.73;10.43;;;7.10;99.90;;;;;;5175450;27;20257;-88
2023/12/19 10:38:25;;;;;;;10.87;10.57;;;7.20;99.90;;;;;;5170710;27;20219;-87
2023/12/19 10:41:06;;;;;;;10.73;10.43;;;7.30;99.90;;;;;;5150067;27;20233;-83
2023/12/19 10:43:41;;;;;;;10.67;10.37;;;7.40;99.90;;;;;;5170939;27;20239;-87
2023/12/19 10:46:21;;;;;;;10.70;10.40;;;7.20;99.90;;;;;;5170102;27;20284;-90
2023/12/19 10:48:49;;;;;;;10.83;10.53;;;7.00;99.90;;;;;;5169756;27;20248;-89
2023/12/19 10:54:37;;;;;;;11.10;10.80;;;6.70;99.90;;;;;;5170847;27;20218;-89
2023/12/19 10:57:20;;;;;;;10.93;10.63;;;6.60;99.90;;;;;;5170747;27;20242;-89
2023/12/19 10:59:57;;;;;;;10.77;10.47;;;6.50;99.90;;;;;;5171264;27;20605;-87
2023/12/19 11:02:37;;;;;;;10.90;10.60;;;6.50;99.90;;;;;;5170864;27;20223;-87
2023/12/19 11:05:31;;;;;;;10.90;10.60;;;6.50;99.90;;;;;;5171033;27;20248;-88
2023/12/19 11:08:10;;;;;;;10.60;10.30;;;6.50;99.90;;;;;;5169857;27;20231;-89
2023/12/19 11:10:40;;;;;;;10.40;10.10;;;6.40;99.90;;;;;;5172964;27;20272;-87
2023/12/19 11:13:09;;;;;;;10.40;10.10;;;6.40;99.90;;;;;;5171194;27;20211;-88
2023/12/19 11:18:33;;;;;;;10.20;9.90;;;6.40;99.90;;;;;;5170242;27;20223;-87
2023/12/19 11:24:18;;;;;;;10.60;10.30;;;6.50;99.90;;;;;;5171950;27;20219;-87
2023/12/19 11:26:56;;;;;;;10.47;10.17;;;6.70;99.90;;;;;;5171046;27;20250;-87
2023/12/19 11:29:50;;;;;;;10.37;10.07;;;6.90;99.90;;;;;;5170468;27;20219;-88
2023/12/19 11:35:33;;;;;;;10.43;10.13;;;7.10;99.90;;;;;;5170298;27;20220;-88
2023/12/19 11:38:25;;;;;;;10.40;10.10;;;7.30;99.90;;;;;;5176022;27;20227;-89
2023/12/19 11:43:57;;;;;;;10.63;10.33;;;7.60;99.90;;;;;;5161749;27;20864;-89
2023/12/19 11:46:26;;;;;;;11.23;10.93;;;7.60;99.90;;;;;;5165697;27;20966;-89
2023/12/19 11:48:55;;;;;;;11.50;11.10;;;7.60;99.90;;;;;;5179441;22;20258;-81
2023/12/19 11:51:53;;;;;;;11.30;11.00;;;7.50;99.90;;;;;;5143768;27;20212;-81
2023/12/19 11:54:21;;;;;;;10.87;10.57;;;7.30;99.90;;;;;;5143731;27;20204;-81
2023/12/19 11:57:01;;;;;;;10.80;10.50;;;7.20;99.90;;;;;;5142621;27;20217;-81
2023/12/19 11:59:50;;;;;;;11.10;10.80;;;7.00;99.90;;;;;;5131882;27;20260;-82
2023/12/19 12:02:29;;;;;;;10.80;10.50;;;6.90;99.90;;;;;;5130134;28;20227;-82
2023/12/19 12:05:09;;;;;;;10.60;10.30;;;6.90;99.90;;;;;;5121409;27;20213;-83
2023/12/19 12:07:47;;;;;;;10.57;10.27;;;6.90;99.90;;;;;;5117737;28;20232;-83
2023/12/19 12:10:18;;;;;;;10.40;10.10;;;6.80;99.90;;;;;;5115211;28;20238;-81
2023/12/19 12:12:47;;;;;;;10.57;10.27;;;6.70;99.90;;;;;;5111623;28;21049;-83
2023/12/19 12:15:20;;;;;;;10.97;10.67;;;6.70;99.90;;;;;;5109404;28;20287;-83
2023/12/19 12:17:48;;;;;;;10.67;10.37;;;6.70;99.90;;;;;;5109049;28;20225;-83
2023/12/19 12:20:16;;;;;;;10.60;10.30;;;6.60;99.90;;;;;;5108904;28;20291;-82
2023/12/19 12:22:44;;;;;;;10.67;10.37;;;6.60;99.90;;;;;;5109262;28;20295;-82
2023/12/19 12:25:12;;;;;;;10.67;10.37;;;6.60;99.90;;;;;;5113835;28;20218;-82
2023/12/19 12:27:39;;;;;;;10.80;10.50;;;6.50;99.90;;;;;;5117090;28;20299;-81
2023/12/19 12:30:12;;;;;;;10.90;10.60;;;6.60;99.90;;;;;;5119166;28;20261;-83
2023/12/19 12:32:41;;;;;;;10.37;10.07;;;6.60;99.90;;;;;;5119594;28;20237;-82
2023/12/19 12:35:28;;;;;;;10.53;10.23;;;6.60;99.90;;;;;;5117453;28;20222;-81
2023/12/19 12:38:01;;;;;;;10.90;10.60;;;6.70;99.90;;;;;;5119521;27;20208;-81
2023/12/19 12:41:11;;;;;;;10.80;10.50;;;7.00;99.90;;;;;;5120246;28;20288;-81
2023/12/19 12:43:41;;;;;;;10.53;10.23;;;7.20;99.90;;;;;;5113336;28;20312;-80
2023/12/19 12:46:12;;;;;;;10.47;10.17;;;7.40;99.90;;;;;;5094698;28;20241;-84
2023/12/19 12:48:43;;;;;;;10.60;10.30;;;7.40;99.90;;;;;;5093212;28;20226;-84
2023/12/19 12:51:11;;;;;;;10.30;10.00;;;7.20;99.90;;;;;;5098017;28;20268;-84
2023/12/19 12:53:39;;;;;;;10.57;10.27;;;7.20;99.90;;;;;;5111764;28;20226;-83
2023/12/19 12:56:11;;;;;;;10.50;10.20;;;7.00;99.90;;;;;;5110923;28;20230;-83
2023/12/19 12:58:39;;;;;;;10.63;10.33;;;6.90;99.90;;;;;;5100517;28;20241;-82
2023/12/19 13:01:06;;;;;;;10.23;9.93;;;6.80;99.90;;;;;;5109641;28;20229;-83
2023/12/19 13:03:36;;;;;;;10.63;10.33;;;6.70;99.90;;;;;;5110223;28;20236;-84
2023/12/19 13:06:05;;;;;;;10.10;9.80;;;6.70;99.90;;;;;;5109207;28;20232;-83
2023/12/19 13:08:34;;;;;;;10.23;9.93;;;6.60;99.90;;;;;;5108263;28;20224;-82
2023/12/19 13:11:07;;;;;;;10.30;10.00;;;6.50;99.90;;;;;;5108825;28;20288;-83
2023/12/19 13:13:35;;;;;;;10.60;10.30;;;6.50;99.90;;;;;;5110738;28;20292;-83
2023/12/19 13:16:06;;;;;;;10.50;10.20;;;6.50;99.90;;;;;;5108458;28;20226;-85
2023/12/19 13:18:39;;;;;;;10.10;9.80;;;6.50;99.90;;;;;;5097506;28;20225;-84
2023/12/19 13:21:07;;;;;;;10.40;10.10;;;6.50;99.90;;;;;;5097155;28;20221;-84
2023/12/19 13:23:35;;;;;;;10.20;9.90;;;6.50;99.90;;;;;;5103805;28;20230;-84
2023/12/19 13:26:03;;;;;;;10.00;9.70;;;6.50;99.90;;;;;;5106880;28;20229;-83
2023/12/19 13:28:30;;;;;;;10.13;9.83;;;6.50;99.90;;;;;;5102334;28;20218;-83
2023/12/19 13:30:58;;;;;;;9.77;9.47;;;6.50;99.90;;;;;;5092167;28;20230;-84
2023/12/19 13:33:26;;;;;;;10.00;9.70;;;6.50;99.90;;;;;;5091749;28;20230;-84
2023/12/19 13:35:56;;;;;;;10.33;10.03;;;6.50;99.90;;;;;;5090998;28;20222;-84
2023/12/19 13:38:24;;;;;;;9.97;9.67;;;6.60;99.90;;;;;;5091536;28;20228;-83
2023/12/19 13:40:55;;;;;;;9.70;9.40;;;6.60;99.90;;;;;;5091470;28;20226;-85
2023/12/19 13:43:23;;;;;;;9.77;9.47;;;6.60;99.90;;;;;;5091131;28;20265;-83
2023/12/19 13:45:50;;;;;;;9.90;9.60;;;6.60;99.90;;;;;;5091625;28;20218;-84
2023/12/19 13:48:17;;;;;;;9.80;9.50;;;6.60;99.90;;;;;;5089046;28;20222;-85
2023/12/19 13:50:45;;;;;;;10.30;10.00;;;6.60;99.90;;;;;;5090161;28;20240;-83
2023/12/19 13:53:15;;;;;;;10.10;9.80;;;6.60;99.90;;;;;;5091344;28;20253;-83
2023/12/19 13:55:45;;;;;;;9.93;9.63;;;6.70;99.90;;;;;;5096771;28;20260;-84
2023/12/19 13:58:13;;;;;;;10.07;9.77;;;6.70;99.90;;;;;;5108628;28;20228;-83